sensor_id;sensor_type;location;lat;lon;timestamp;pressure;altitude;pressure_sealevel;temperature;humidity
35908;BME280;22003;50.320;8.054;2023-04-28T04:01:42;99331.97;;;8.39;100.00
35908;BME280;22003;50.320;8.054;2023-04-28T04:04:08;99321.78;;;8.45;100.00
35908;BME280;22003;50.320;8.054;2023-04-28T04:06:33;99325.41;;;8.56;100.00
35908;BME280;22003;50.320;8.054;2023-04-28T04:08:58;99313.25;;;8.53;100.00
35908;BME280;22003;50.320;8.054;2023-04-28T04:11:24;99316.41;;;8.23;100.00
35908;BME280;22003;50.320;8.054;2023-04-28T04:13:49;99321.38;;;8.15;100.00
35908;BME280;22003;50.320;8.054;2023-04-28T04:16:15;99317.25;;;8.35;100.00
35908;BME280;22003;50.320;8.054;2023-04-28T04:18:40;99304.50;;;7.93;100.00
35908;BME280;22003;50.320;8.054;2023-04-28T04:21:06;99322.19;;;8.04;100.00
35908;BME280;22003;50.320;8.054;2023-04-28T04:23:31;99324.34;;;8.34;100.00
35908;BME280;22003;50.320;8.054;2023-04-28T04:25:56;99310.75;;;8.16;100.00
35908;BME280;22003;50.320;8.054;2023-04-28T04:28:21;99316.41;;;8.23;100.00
35908;BME280;22003;50.320;8.054;2023-04-28T04:30:47;99315.47;;;8.35;100.00
35908;BME280;22003;50.320;8.054;2023-04-28T04:33:12;99319.59;;;8.39;100.00
35908;BME280;22003;50.320;8.054;2023-04-28T04:35:37;99304.53;;;8.29;100.00
35908;BME280;22003;50.320;8.054;2023-04-28T04:38:03;99296.72;;;8.27;100.00
35908;BME280;22003;50.320;8.054;2023-04-28T04:40:28;99305.59;;;8.50;100.00
35908;BME280;22003;50.320;8.054;2023-04-28T04:42:54;99300.69;;;8.33;100.00
35908;BME280;22003;50.320;8.054;2023-04-28T04:45:19;99316.44;;;8.34;100.00
35908;BME280;22003;50.320;8.054;2023-04-28T04:47:45;99317.16;;;8.36;100.00
35908;BME280;22003;50.320;8.054;2023-04-28T04:50:11;99311.56;;;8.52;100.00
35908;BME280;22003;50.320;8.054;2023-04-28T04:52:36;99297.47;;;8.29;100.00
35908;BME280;22003;50.320;8.054;2023-04-28T04:55:01;99279.44;;;8.23;100.00
35908;BME280;22003;50.320;8.054;2023-04-28T04:57:27;99299.59;;;8.24;100.00
35908;BME280;22003;50.320;8.054;2023-04-28T04:59:52;99306.16;;;8.54;100.00
35908;BME280;22003;50.320;8.054;2023-04-28T05:02:17;99306.16;;;8.42;100.00
35908;BME280;22003;50.320;8.054;2023-04-28T05:04:42;99312.03;;;8.46;100.00
35908;BME280;22003;50.320;8.054;2023-04-28T05:07:08;99308.59;;;8.57;100.00
35908;BME280;22003;50.320;8.054;2023-04-28T05:09:33;99300.28;;;8.39;100.00
35908;BME280;22003;50.320;8.054;2023-04-28T05:11:58;99304.81;;;8.37;100.00
35908;BME280;22003;50.320;8.054;2023-04-28T05:14:23;99300.91;;;8.65;100.00
35908;BME280;22003;50.320;8.054;2023-04-28T05:16:49;99273.28;;;8.58;100.00
35908;BME280;22003;50.320;8.054;2023-04-28T05:19:14;99280.25;;;8.59;100.00
35908;BME280;22003;50.320;8.054;2023-04-28T05:21:40;99303.13;;;8.36;100.00
35908;BME280;22003;50.320;8.054;2023-04-28T05:24:05;99299.81;;;8.56;100.00
35908;BME280;22003;50.320;8.054;2023-04-28T05:26:31;99309.03;;;8.39;100.00
35908;BME280;22003;50.320;8.054;2023-04-28T05:28:56;99299.31;;;8.16;100.00
35908;BME280;22003;50.320;8.054;2023-04-28T05:31:21;99315.78;;;8.77;100.00
35908;BME280;22003;50.320;8.054;2023-04-28T05:33:46;99320.81;;;8.58;100.00
35908;BME280;22003;50.320;8.054;2023-04-28T05:36:12;99315.66;;;8.45;100.00
35908;BME280;22003;50.320;8.054;2023-04-28T05:38:37;99317.94;;;8.50;100.00
35908;BME280;22003;50.320;8.054;2023-04-28T05:41:02;99322.38;;;8.60;100.00
35908;BME280;22003;50.320;8.054;2023-04-28T05:43:28;99320.03;;;8.33;100.00
35908;BME280;22003;50.320;8.054;2023-04-28T05:45:53;99330.75;;;8.43;100.00
35908;BME280;22003;50.320;8.054;2023-04-28T05:48:18;99322.38;;;8.60;100.00
35908;BME280;22003;50.320;8.054;2023-04-28T05:50:44;99312.31;;;8.65;100.00
35908;BME280;22003;50.320;8.054;2023-04-28T05:53:09;99334.69;;;8.37;100.00
35908;BME280;22003;50.320;8.054;2023-04-28T05:55:34;99338.78;;;8.41;100.00
35908;BME280;22003;50.320;8.054;2023-04-28T05:58:01;99350.44;;;8.39;100.00
35908;BME280;22003;50.320;8.054;2023-04-28T06:00:26;99344.22;;;8.27;100.00
35908;BME280;22003;50.320;8.054;2023-04-28T06:02:52;99325.50;;;8.19;100.00
35908;BME280;22003;50.320;8.054;2023-04-28T06:05:17;99308.66;;;8.09;100.00
35908;BME280;22003;50.320;8.054;2023-04-28T06:07:42;99309.03;;;8.15;100.00
35908;BME280;22003;50.320;8.054;2023-04-28T06:10:08;99311.47;;;8.18;100.00
35908;BME280;22003;50.320;8.054;2023-04-28T06:12:33;99320.97;;;8.32;100.00
35908;BME280;22003;50.320;8.054;2023-04-28T06:14:59;99322.44;;;8.36;100.00
35908;BME280;22003;50.320;8.054;2023-04-28T06:17:24;99327.31;;;8.30;100.00
35908;BME280;22003;50.320;8.054;2023-04-28T06:19:50;99318.97;;;8.36;100.00
35908;BME280;22003;50.320;8.054;2023-04-28T06:22:18;99321.75;;;8.21;100.00
35908;BME280;22003;50.320;8.054;2023-04-28T06:24:43;99298.94;;;8.09;100.00
35908;BME280;22003;50.320;8.054;2023-04-28T06:27:08;99274.75;;;8.27;100.00
35908;BME280;22003;50.320;8.054;2023-04-28T06:29:33;99304.25;;;8.44;100.00
35908;BME280;22003;50.320;8.054;2023-04-28T06:31:59;99303.19;;;8.69;100.00
35908;BME280;22003;50.320;8.054;2023-04-28T06:34:25;99321.56;;;8.93;100.00
35908;BME280;22003;50.320;8.054;2023-04-28T06:36:57;99321.13;;;8.88;100.00
35908;BME280;22003;50.320;8.054;2023-04-28T06:39:22;99295.53;;;9.00;100.00
35908;BME280;22003;50.320;8.054;2023-04-28T06:41:47;99284.47;;;8.50;100.00
35908;BME280;22003;50.320;8.054;2023-04-28T06:44:12;99310.25;;;8.58;100.00
35908;BME280;22003;50.320;8.054;2023-04-28T06:46:38;99313.19;;;8.88;100.00
35908;BME280;22003;50.320;8.054;2023-04-28T06:49:03;99308.34;;;9.05;100.00
35908;BME280;22003;50.320;8.054;2023-04-28T06:51:30;99300.44;;;8.82;100.00
35908;BME280;22003;50.320;8.054;2023-04-28T06:53:56;99280.75;;;8.75;100.00
35908;BME280;22003;50.320;8.054;2023-04-28T06:56:22;99288.94;;;8.83;100.00
35908;BME280;22003;50.320;8.054;2023-04-28T06:58:47;99263.72;;;8.79;100.00
35908;BME280;22003;50.320;8.054;2023-04-28T07:01:12;99272.13;;;8.95;100.00
35908;BME280;22003;50.320;8.054;2023-04-28T07:03:38;99258.66;;;8.98;100.00
35908;BME280;22003;50.320;8.054;2023-04-28T07:06:03;99259.47;;;8.99;100.00
35908;BME280;22003;50.320;8.054;2023-04-28T07:08:29;99262.63;;;9.59;100.00
35908;BME280;22003;50.320;8.054;2023-04-28T07:10:55;99250.22;;;9.91;100.00
35908;BME280;22003;50.320;8.054;2023-04-28T07:13:20;99232.81;;;9.89;100.00
35908;BME280;22003;50.320;8.054;2023-04-28T07:15:46;99227.50;;;10.10;100.00
35908;BME280;22003;50.320;8.054;2023-04-28T07:18:11;99249.78;;;10.07;100.00
35908;BME280;22003;50.320;8.054;2023-04-28T07:20:36;99242.44;;;10.31;100.00
35908;BME280;22003;50.320;8.054;2023-04-28T07:23:01;99259.03;;;10.13;100.00
35908;BME280;22003;50.320;8.054;2023-04-28T07:25:27;99263.41;;;10.02;100.00
35908;BME280;22003;50.320;8.054;2023-04-28T07:27:52;99247.53;;;10.02;100.00
35908;BME280;22003;50.320;8.054;2023-04-28T07:30:18;99260.16;;;9.99;100.00
35908;BME280;22003;50.320;8.054;2023-04-28T07:32:43;99272.56;;;9.98;100.00
35908;BME280;22003;50.320;8.054;2023-04-28T07:35:08;99285.69;;;9.68;100.00
35908;BME280;22003;50.320;8.054;2023-04-28T07:37:34;99299.47;;;9.28;100.00
35908;BME280;22003;50.320;8.054;2023-04-28T07:39:59;99283.16;;;9.01;100.00
35908;BME280;22003;50.320;8.054;2023-04-28T07:42:25;99296.09;;;9.15;100.00
35908;BME280;22003;50.320;8.054;2023-04-28T07:44:51;99292.78;;;8.90;100.00
35908;BME280;22003;50.320;8.054;2023-04-28T07:47:16;99294.22;;;8.83;100.00
35908;BME280;22003;50.320;8.054;2023-04-28T07:49:42;99280.03;;;9.18;100.00
35908;BME280;22003;50.320;8.054;2023-04-28T07:52:07;99278.03;;;9.42;100.00
35908;BME280;22003;50.320;8.054;2023-04-28T07:54:33;99298.00;;;9.46;100.00
35908;BME280;22003;50.320;8.054;2023-04-28T07:56:59;99290.72;;;9.05;100.00
35908;BME280;22003;50.320;8.054;2023-04-28T07:59:24;99299.50;;;9.17;100.00
35908;BME280;22003;50.320;8.054;2023-04-28T08:01:50;99297.31;;;9.22;100.00
35908;BME280;22003;50.320;8.054;2023-04-28T08:04:15;99296.47;;;9.21;100.00
35908;BME280;22003;50.320;8.054;2023-04-28T08:06:40;99305.22;;;9.44;100.00
35908;BME280;22003;50.320;8.054;2023-04-28T08:09:06;99304.50;;;9.31;100.00
35908;BME280;22003;50.320;8.054;2023-04-28T08:11:31;99301.16;;;9.29;100.00
35908;BME280;22003;50.320;8.054;2023-04-28T08:13:57;99300.41;;;9.27;100.00
35908;BME280;22003;50.320;8.054;2023-04-28T08:16:26;99286.25;;;9.39;100.00
35908;BME280;22003;50.320;8.054;2023-04-28T08:18:52;99301.22;;;9.61;100.00
35908;BME280;22003;50.320;8.054;2023-04-28T08:21:17;99304.63;;;9.84;100.00
35908;BME280;22003;50.320;8.054;2023-04-28T08:23:42;99298.34;;;10.17;100.00
35908;BME280;22003;50.320;8.054;2023-04-28T08:26:07;99304.22;;;10.21;100.00
35908;BME280;22003;50.320;8.054;2023-04-28T08:28:33;99290.75;;;10.24;100.00
35908;BME280;22003;50.320;8.054;2023-04-28T08:30:58;99297.75;;;10.46;100.00
35908;BME280;22003;50.320;8.054;2023-04-28T08:33:24;99297.00;;;10.65;100.00
35908;BME280;22003;50.320;8.054;2023-04-28T08:35:50;99310.00;;;10.47;100.00
35908;BME280;22003;50.320;8.054;2023-04-28T08:38:15;99318.03;;;10.56;100.00
35908;BME280;22003;50.320;8.054;2023-04-28T08:40:42;99320.00;;;10.64;100.00
35908;BME280;22003;50.320;8.054;2023-04-28T08:43:08;99299.56;;;10.76;100.00
35908;BME280;22003;50.320;8.054;2023-04-28T08:45:42;99318.69;;;11.00;100.00
35908;BME280;22003;50.320;8.054;2023-04-28T08:48:28;99314.84;;;11.24;100.00
35908;BME280;22003;50.320;8.054;2023-04-28T08:50:57;99312.84;;;11.06;100.00
35908;BME280;22003;50.320;8.054;2023-04-28T08:53:24;99321.97;;;11.73;99.43
35908;BME280;22003;50.320;8.054;2023-04-28T08:55:56;99325.91;;;10.98;100.00
35908;BME280;22003;50.320;8.054;2023-04-28T08:58:26;99331.06;;;10.69;100.00
35908;BME280;22003;50.320;8.054;2023-04-28T09:00:52;99320.53;;;10.58;100.00
35908;BME280;22003;50.320;8.054;2023-04-28T09:03:17;99327.03;;;10.75;100.00
35908;BME280;22003;50.320;8.054;2023-04-28T09:05:43;99306.53;;;10.67;100.00
35908;BME280;22003;50.320;8.054;2023-04-28T09:08:08;99305.09;;;10.94;100.00
35908;BME280;22003;50.320;8.054;2023-04-28T09:10:36;99326.16;;;11.26;100.00
35908;BME280;22003;50.320;8.054;2023-04-28T09:13:02;99324.34;;;11.67;100.00
35908;BME280;22003;50.320;8.054;2023-04-28T09:15:37;99327.53;;;11.20;100.00
35908;BME280;22003;50.320;8.054;2023-04-28T09:18:06;99334.19;;;11.05;100.00
35908;BME280;22003;50.320;8.054;2023-04-28T09:20:33;99292.63;;;11.05;100.00
35908;BME280;22003;50.320;8.054;2023-04-28T09:23:15;99316.06;;;11.60;100.00
35908;BME280;22003;50.320;8.054;2023-04-28T09:28:29;99310.94;;;13.02;96.94
35908;BME280;22003;50.320;8.054;2023-04-28T09:30:55;99300.22;;;12.28;96.07
35908;BME280;22003;50.320;8.054;2023-04-28T09:33:21;99301.97;;;12.66;97.91
35908;BME280;22003;50.320;8.054;2023-04-28T09:35:47;99313.44;;;12.66;96.75
35908;BME280;22003;50.320;8.054;2023-04-28T09:38:13;99311.22;;;12.99;98.60
35908;BME280;22003;50.320;8.054;2023-04-28T09:41:09;99308.44;;;13.38;96.67
35908;BME280;22003;50.320;8.054;2023-04-28T09:43:34;99291.41;;;13.94;89.90
35908;BME280;22003;50.320;8.054;2023-04-28T09:46:02;99299.63;;;13.37;90.05
35908;BME280;22003;50.320;8.054;2023-04-28T09:48:31;99314.69;;;13.09;93.78
35908;BME280;22003;50.320;8.054;2023-04-28T09:50:59;99304.53;;;12.95;97.58
35908;BME280;22003;50.320;8.054;2023-04-28T09:53:26;99296.38;;;13.89;93.18
35908;BME280;22003;50.320;8.054;2023-04-28T09:55:53;99294.59;;;13.97;90.49
35908;BME280;22003;50.320;8.054;2023-04-28T09:58:20;99269.41;;;14.71;85.54
35908;BME280;22003;50.320;8.054;2023-04-28T10:00:59;99288.28;;;15.12;84.79
35908;BME280;22003;50.320;8.054;2023-04-28T10:03:26;99286.53;;;14.95;85.90
35908;BME280;22003;50.320;8.054;2023-04-28T10:05:52;99273.34;;;15.94;82.32
35908;BME280;22003;50.320;8.054;2023-04-28T10:08:19;99273.34;;;15.78;85.60
35908;BME280;22003;50.320;8.054;2023-04-28T10:10:47;99280.66;;;15.76;85.74
35908;BME280;22003;50.320;8.054;2023-04-28T10:13:14;99285.25;;;14.81;87.87
35908;BME280;22003;50.320;8.054;2023-04-28T10:15:41;99277.25;;;15.15;84.69
35908;BME280;22003;50.320;8.054;2023-04-28T10:18:07;99267.41;;;15.50;86.59
35908;BME280;22003;50.320;8.054;2023-04-28T10:20:33;99278.09;;;14.82;88.38
35908;BME280;22003;50.320;8.054;2023-04-28T10:23:29;99280.91;;;14.72;88.71
35908;BME280;22003;50.320;8.054;2023-04-28T10:26:01;99261.63;;;14.60;88.62
35908;BME280;22003;50.320;8.054;2023-04-28T10:28:27;99229.28;;;15.31;87.27
35908;BME280;22003;50.320;8.054;2023-04-28T10:31:12;99239.44;;;16.35;83.35
35908;BME280;22003;50.320;8.054;2023-04-28T10:33:38;99237.78;;;15.77;83.10
35908;BME280;22003;50.320;8.054;2023-04-28T10:36:05;99259.66;;;15.89;85.81
35908;BME280;22003;50.320;8.054;2023-04-28T10:38:31;99260.72;;;15.54;89.46
35908;BME280;22003;50.320;8.054;2023-04-28T10:40:57;99253.88;;;15.01;93.25
35908;BME280;22003;50.320;8.054;2023-04-28T10:56:22;99236.63;;;18.17;82.67
35908;BME280;22003;50.320;8.054;2023-04-28T10:58:54;99228.25;;;18.35;82.26
35908;BME280;22003;50.320;8.054;2023-04-28T11:06:30;99218.31;;;17.83;84.84
35908;BME280;22003;50.320;8.054;2023-04-28T11:09:02;99207.75;;;17.27;86.93
35908;BME280;22003;50.320;8.054;2023-04-28T11:11:28;99228.81;;;16.91;85.44
35908;BME280;22003;50.320;8.054;2023-04-28T11:13:56;99229.00;;;16.81;88.83
35908;BME280;22003;50.320;8.054;2023-04-28T11:16:53;99217.94;;;17.86;82.61
35908;BME280;22003;50.320;8.054;2023-04-28T11:19:20;99197.78;;;18.13;80.44
35908;BME280;22003;50.320;8.054;2023-04-28T11:21:46;99214.78;;;16.89;85.57
35908;BME280;22003;50.320;8.054;2023-04-28T11:24:12;99217.72;;;16.39;88.81
35908;BME280;22003;50.320;8.054;2023-04-28T11:26:38;99203.78;;;17.77;84.97
35908;BME280;22003;50.320;8.054;2023-04-28T11:29:04;99205.22;;;18.40;82.67
35908;BME280;22003;50.320;8.054;2023-04-28T11:31:30;99192.56;;;18.49;85.05
35908;BME280;22003;50.320;8.054;2023-04-28T11:33:59;99194.88;;;18.96;81.44
35908;BME280;22003;50.320;8.054;2023-04-28T11:38:52;99189.31;;;20.41;79.81
35908;BME280;22003;50.320;8.054;2023-04-28T11:41:17;99186.25;;;20.44;80.20
35908;BME280;22003;50.320;8.054;2023-04-28T11:43:42;99184.63;;;20.78;77.30
35908;BME280;22003;50.320;8.054;2023-04-28T11:46:08;99167.44;;;20.86;77.22
35908;BME280;22003;50.320;8.054;2023-04-28T11:48:33;99172.66;;;21.48;73.01
35908;BME280;22003;50.320;8.054;2023-04-28T11:50:58;99171.44;;;21.51;69.44
35908;BME280;22003;50.320;8.054;2023-04-28T11:53:43;99181.13;;;21.32;75.83
35908;BME280;22003;50.320;8.054;2023-04-28T11:56:09;99180.22;;;20.42;73.21
35908;BME280;22003;50.320;8.054;2023-04-28T11:58:34;99180.66;;;19.68;78.50
35908;BME280;22003;50.320;8.054;2023-04-28T12:01:10;99173.59;;;20.66;76.48
35908;BME280;22003;50.320;8.054;2023-04-28T12:03:45;99176.44;;;20.65;74.39
35908;BME280;22003;50.320;8.054;2023-04-28T12:06:11;99163.13;;;20.50;72.73
35908;BME280;22003;50.320;8.054;2023-04-28T12:08:36;99156.28;;;20.47;73.13
35908;BME280;22003;50.320;8.054;2023-04-28T12:11:09;99157.97;;;20.96;72.56
35908;BME280;22003;50.320;8.054;2023-04-28T12:13:35;99145.13;;;20.50;73.48
35908;BME280;22003;50.320;8.054;2023-04-28T12:16:02;99143.88;;;20.25;73.44
35908;BME280;22003;50.320;8.054;2023-04-28T12:18:29;99154.72;;;22.22;74.17
35908;BME280;22003;50.320;8.054;2023-04-28T12:20:54;99138.09;;;23.03;69.09
35908;BME280;22003;50.320;8.054;2023-04-28T12:23:34;99123.72;;;23.15;65.87
35908;BME280;22003;50.320;8.054;2023-04-28T12:26:01;99153.19;;;23.93;68.40
35908;BME280;22003;50.320;8.054;2023-04-28T12:28:39;99097.19;;;22.99;62.14
35908;BME280;22003;50.320;8.054;2023-04-28T12:31:06;99130.25;;;22.17;63.94
35908;BME280;22003;50.320;8.054;2023-04-28T12:33:33;99147.41;;;21.63;64.31
35908;BME280;22003;50.320;8.054;2023-04-28T12:36:02;99145.19;;;21.12;68.85
35908;BME280;22003;50.320;8.054;2023-04-28T12:38:28;99139.63;;;21.20;70.76
35908;BME280;22003;50.320;8.054;2023-04-28T12:40:54;99133.78;;;22.10;68.35
35908;BME280;22003;50.320;8.054;2023-04-28T12:43:21;99133.25;;;22.53;64.75
35908;BME280;22003;50.320;8.054;2023-04-28T12:45:49;99128.78;;;22.14;64.63
35908;BME280;22003;50.320;8.054;2023-04-28T12:48:14;99137.69;;;22.01;67.66
35908;BME280;22003;50.320;8.054;2023-04-28T12:50:39;99137.69;;;21.88;67.11
35908;BME280;22003;50.320;8.054;2023-04-28T12:53:04;99144.09;;;21.67;68.59
35908;BME280;22003;50.320;8.054;2023-04-28T12:55:30;99147.44;;;21.82;68.24
35908;BME280;22003;50.320;8.054;2023-04-28T12:57:55;99131.84;;;21.65;68.29
35908;BME280;22003;50.320;8.054;2023-04-28T13:00:21;99129.81;;;21.67;68.11
35908;BME280;22003;50.320;8.054;2023-04-28T13:02:48;99107.00;;;21.89;64.73
35908;BME280;22003;50.320;8.054;2023-04-28T13:05:14;99108.63;;;21.64;69.11
35908;BME280;22003;50.320;8.054;2023-04-28T13:07:39;99127.31;;;22.38;66.39
35908;BME280;22003;50.320;8.054;2023-04-28T13:10:05;99122.97;;;22.95;67.54
35908;BME280;22003;50.320;8.054;2023-04-28T13:12:32;99093.59;;;24.00;63.19
35908;BME280;22003;50.320;8.054;2023-04-28T13:14:57;99105.16;;;24.32;60.94
35908;BME280;22003;50.320;8.054;2023-04-28T13:17:23;99098.91;;;23.57;60.66
35908;BME280;22003;50.320;8.054;2023-04-28T13:19:48;99106.53;;;22.32;64.02
35908;BME280;22003;50.320;8.054;2023-04-28T13:22:13;99106.34;;;21.87;64.86
35908;BME280;22003;50.320;8.054;2023-04-28T13:24:39;99085.00;;;21.46;68.79
35908;BME280;22003;50.320;8.054;2023-04-28T13:27:05;99069.81;;;20.64;70.26
35908;BME280;22003;50.320;8.054;2023-04-28T13:29:33;99088.16;;;19.84;72.68
35908;BME280;22003;50.320;8.054;2023-04-28T13:31:58;99081.25;;;19.75;73.31
35908;BME280;22003;50.320;8.054;2023-04-28T13:34:24;99067.78;;;19.25;74.21
35908;BME280;22003;50.320;8.054;2023-04-28T13:36:51;99067.59;;;18.69;76.23
35908;BME280;22003;50.320;8.054;2023-04-28T13:39:18;99068.34;;;18.19;78.26
35908;BME280;22003;50.320;8.054;2023-04-28T13:41:44;99071.09;;;17.81;80.51
35908;BME280;22003;50.320;8.054;2023-04-28T13:44:09;99115.72;;;18.27;80.24
35908;BME280;22003;50.320;8.054;2023-04-28T13:46:34;99156.19;;;18.17;85.64
35908;BME280;22003;50.320;8.054;2023-04-28T13:49:00;99156.81;;;17.04;95.04
35908;BME280;22003;50.320;8.054;2023-04-28T13:51:25;99151.88;;;16.37;100.00
35908;BME280;22003;50.320;8.054;2023-04-28T13:53:52;99138.28;;;16.00;100.00
35908;BME280;22003;50.320;8.054;2023-04-28T13:56:18;99152.47;;;15.76;100.00
35908;BME280;22003;50.320;8.054;2023-04-28T13:58:43;99146.97;;;17.05;100.00
35908;BME280;22003;50.320;8.054;2023-04-28T14:01:08;99150.94;;;17.40;100.00
35908;BME280;22003;50.320;8.054;2023-04-28T14:03:34;99152.44;;;16.80;100.00
35908;BME280;22003;50.320;8.054;2023-04-28T14:06:00;99122.59;;;15.64;97.28
35908;BME280;22003;50.320;8.054;2023-04-28T14:08:26;99127.22;;;15.29;99.11
35908;BME280;22003;50.320;8.054;2023-04-28T14:10:51;99126.03;;;15.24;100.00
35908;BME280;22003;50.320;8.054;2023-04-28T14:13:17;99116.75;;;15.69;100.00
35908;BME280;22003;50.320;8.054;2023-04-28T14:15:43;99121.19;;;16.17;100.00
35908;BME280;22003;50.320;8.054;2023-04-28T14:18:09;99130.75;;;16.59;100.00
35908;BME280;22003;50.320;8.054;2023-04-28T14:20:35;99135.28;;;17.29;100.00
35908;BME280;22003;50.320;8.054;2023-04-28T14:23:01;99109.53;;;17.28;99.26
35908;BME280;22003;50.320;8.054;2023-04-28T14:25:26;99132.81;;;17.65;100.00
35908;BME280;22003;50.320;8.054;2023-04-28T14:27:52;99125.44;;;17.90;96.72
35908;BME280;22003;50.320;8.054;2023-04-28T14:30:18;99119.56;;;18.24;94.91
35908;BME280;22003;50.320;8.054;2023-04-28T14:32:44;99120.13;;;18.93;96.29
35908;BME280;22003;50.320;8.054;2023-04-28T14:35:11;99102.00;;;19.17;88.17
35908;BME280;22003;50.320;8.054;2023-04-28T14:37:37;99079.72;;;18.51;92.08
35908;BME280;22003;50.320;8.054;2023-04-28T14:40:03;99099.16;;;19.04;92.52
35908;BME280;22003;50.320;8.054;2023-04-28T14:42:31;99090.22;;;19.18;87.19
35908;BME280;22003;50.320;8.054;2023-04-28T14:44:58;99069.47;;;18.39;87.94
35908;BME280;22003;50.320;8.054;2023-04-28T14:47:23;99092.69;;;18.17;93.21
35908;BME280;22003;50.320;8.054;2023-04-28T14:49:49;99103.84;;;18.51;93.22
35908;BME280;22003;50.320;8.054;2023-04-28T14:52:19;99091.34;;;18.58;90.04
35908;BME280;22003;50.320;8.054;2023-04-28T14:54:45;99082.47;;;18.57;92.71
35908;BME280;22003;50.320;8.054;2023-04-28T14:57:11;99091.19;;;18.15;95.81
35908;BME280;22003;50.320;8.054;2023-04-28T14:59:37;99097.00;;;18.04;97.70
35908;BME280;22003;50.320;8.054;2023-04-28T15:02:02;99091.44;;;17.90;99.72
35908;BME280;22003;50.320;8.054;2023-04-28T15:04:28;99099.19;;;17.85;100.00
35908;BME280;22003;50.320;8.054;2023-04-28T15:06:55;99097.44;;;17.55;100.00
35908;BME280;22003;50.320;8.054;2023-04-28T15:09:21;99075.19;;;17.31;100.00
35908;BME280;22003;50.320;8.054;2023-04-28T15:11:46;99081.06;;;17.50;100.00
35908;BME280;22003;50.320;8.054;2023-04-28T15:14:12;99086.59;;;17.25;100.00
35908;BME280;22003;50.320;8.054;2023-04-28T15:16:38;99083.78;;;17.27;100.00
35908;BME280;22003;50.320;8.054;2023-04-28T15:19:03;99066.53;;;16.98;100.00
35908;BME280;22003;50.320;8.054;2023-04-28T15:21:30;99079.69;;;16.85;100.00
35908;BME280;22003;50.320;8.054;2023-04-28T15:23:56;99073.88;;;16.73;100.00
35908;BME280;22003;50.320;8.054;2023-04-28T15:26:21;99102.78;;;16.70;100.00
35908;BME280;22003;50.320;8.054;2023-04-28T15:28:47;99106.03;;;16.49;100.00
35908;BME280;22003;50.320;8.054;2023-04-28T15:31:13;99102.34;;;16.58;100.00
35908;BME280;22003;50.320;8.054;2023-04-28T15:33:38;99098.13;;;16.32;100.00
35908;BME280;22003;50.320;8.054;2023-04-28T15:36:03;99089.03;;;16.42;100.00
35908;BME280;22003;50.320;8.054;2023-04-28T15:38:29;99081.56;;;16.29;100.00
35908;BME280;22003;50.320;8.054;2023-04-28T15:40:56;99090.47;;;16.13;100.00
35908;BME280;22003;50.320;8.054;2023-04-28T15:43:21;99068.13;;;15.98;100.00
35908;BME280;22003;50.320;8.054;2023-04-28T15:45:47;99085.59;;;16.25;100.00
35908;BME280;22003;50.320;8.054;2023-04-28T15:48:12;99094.81;;;16.22;100.00
35908;BME280;22003;50.320;8.054;2023-04-28T15:50:37;99119.13;;;16.35;100.00
35908;BME280;22003;50.320;8.054;2023-04-28T15:53:03;99118.75;;;16.47;100.00
35908;BME280;22003;50.320;8.054;2023-04-28T15:55:28;99124.63;;;16.89;100.00
35908;BME280;22003;50.320;8.054;2023-04-28T15:57:54;99087.56;;;17.55;100.00
35908;BME280;22003;50.320;8.054;2023-04-28T16:00:20;99088.59;;;18.07;100.00
35908;BME280;22003;50.320;8.054;2023-04-28T16:02:45;99080.38;;;18.23;98.78
35908;BME280;22003;50.320;8.054;2023-04-28T16:05:10;99100.47;;;19.50;96.57
35908;BME280;22003;50.320;8.054;2023-04-28T16:07:36;99078.53;;;19.47;90.97
35908;BME280;22003;50.320;8.054;2023-04-28T16:10:08;99091.72;;;19.91;87.35
35908;BME280;22003;50.320;8.054;2023-04-28T16:12:34;99091.34;;;20.64;89.33
35908;BME280;22003;50.320;8.054;2023-04-28T16:14:59;99082.34;;;20.85;85.51
35908;BME280;22003;50.320;8.054;2023-04-28T16:17:26;99092.06;;;20.10;88.42
35908;BME280;22003;50.320;8.054;2023-04-28T16:19:53;99050.66;;;20.39;87.63
35908;BME280;22003;50.320;8.054;2023-04-28T16:22:18;99080.47;;;20.78;84.77
35908;BME280;22003;50.320;8.054;2023-04-28T16:24:43;99058.53;;;20.40;85.49
35908;BME280;22003;50.320;8.054;2023-04-28T16:27:10;99070.47;;;19.68;87.16
35908;BME280;22003;50.320;8.054;2023-04-28T16:29:36;99067.03;;;19.10;90.16
35908;BME280;22003;50.320;8.054;2023-04-28T16:32:03;99050.47;;;18.56;93.71
35908;BME280;22003;50.320;8.054;2023-04-28T16:34:28;99080.19;;;18.39;94.54
35908;BME280;22003;50.320;8.054;2023-04-28T16:36:54;99091.56;;;18.27;95.57
35908;BME280;22003;50.320;8.054;2023-04-28T16:39:19;99089.88;;;18.26;96.21
35908;BME280;22003;50.320;8.054;2023-04-28T16:41:45;99093.78;;;18.67;97.64
35908;BME280;22003;50.320;8.054;2023-04-28T16:44:10;99085.72;;;19.89;92.31
35908;BME280;22003;50.320;8.054;2023-04-28T16:46:36;99084.41;;;20.07;89.72
35908;BME280;22003;50.320;8.054;2023-04-28T16:49:01;99079.88;;;20.96;86.66
35908;BME280;22003;50.320;8.054;2023-04-28T16:51:26;99084.25;;;22.56;78.01
35908;BME280;22003;50.320;8.054;2023-04-28T16:53:52;99055.38;;;23.40;72.81
35908;BME280;22003;50.320;8.054;2023-04-28T16:56:17;99065.63;;;22.86;74.20
35908;BME280;22003;50.320;8.054;2023-04-28T16:58:43;99066.66;;;23.30;75.03
35908;BME280;22003;50.320;8.054;2023-04-28T17:01:08;99057.97;;;24.03;71.86
35908;BME280;22003;50.320;8.054;2023-04-28T17:03:33;99064.53;;;24.32;70.47
35908;BME280;22003;50.320;8.054;2023-04-28T17:06:04;99068.63;;;25.08;68.07
35908;BME280;22003;50.320;8.054;2023-04-28T17:08:30;99057.06;;;25.43;66.82
35908;BME280;22003;50.320;8.054;2023-04-28T17:10:55;99057.41;;;25.88;66.73
35908;BME280;22003;50.320;8.054;2023-04-28T17:13:20;99057.84;;;26.32;64.96
35908;BME280;22003;50.320;8.054;2023-04-28T17:15:52;99063.97;;;26.39;66.30
35908;BME280;22003;50.320;8.054;2023-04-28T17:18:18;99060.78;;;26.19;65.11